Acton, Indiana
Current Conditions -  °F | °C
As of 9:53 PM on Wednesday 26 Nov 2014 (Local Time) from KGEZ Reporting Station
Few Clouds Few Clouds  
Wind Chill: -5°   Ceiling: Unl
Heat Index: -1°   Visibility: 10mi
Dew Point: -4°   Wind: 8mph
Humidity: 79%   Direction: 30°NNE
Pressure: 30.07"   Gusts: NA
Location:  39.6613°N, 85.9949°W
Report Text: KGEZ 270253Z AUTO 03007KT 10SM FEW120 M01/M04 A3007 RMK AO2 SLP192 T10111044 53008
Loading
Personal Weather Stations






























Interactive Weather Map New forecast layout! Learn more

10-Day Weather Forecast

Advertisements
Track Severe Weather on mobile